»·PEaware :: N7JB KPHX-KPRC

N7JB :: KPHX-KPRC

FLIGHT INFORMATION

Flight Status: Arrived
Operator: Privately registered:
United States
More flights under this callsign
Pilot: Joseph B. (37653)
Aircraft: BOEING 737-800
(B738)
More flights by this aircraft type
Origin: KPHX Phoenix Sky Harbor Intl
United States
Destination: KPRC Love
United States
More flights between these airports :: More routes between these airports
Route: PXR DRK
File this flight plan on PilotEdge
Remarks: REQ ILS21L @ PRC
Altitude:
(Current/Filed)
10,000ft
Speed:
(Current/Filed)
270kts
Departed: 16-Mar-22 05:21 PM
Arrived: 16-Mar-22 06:25 PM
Distance/Time
Traveled:
76nm/1:04
Distance/Time
To Go:
Arrived

Flight Plot

Page will automatically refresh every two minutes.

Flight plan parsing failed; only flown route is shown


Map Options




Map Legend


Flown Route
Filed Route
Departure Airport
Arrival Airport
Navaid (VOR, NDB)
Fix

Horizontal Profiles

Position Reports

Time Latitude Longitude Heading Altitude Ground
Speed
16-Mar-22 17:08 33.443683 -112.027998 179 1117ft 0kts
16-Mar-22 17:09 33.443683 -112.027998 179 1117ft 0kts
16-Mar-22 17:10 33.443683 -112.027998 179 1117ft 0kts
16-Mar-22 17:11 33.443683 -112.027998 179 1117ft 0kts
16-Mar-22 17:12 33.443683 -112.027998 179 1117ft 0kts
16-Mar-22 17:13 33.443683 -112.027998 179 1117ft 0kts
16-Mar-22 17:14 33.443683 -112.027998 179 1117ft 0kts
16-Mar-22 17:15 33.443683 -112.027998 179 1117ft 0kts
16-Mar-22 17:16 33.443683 -112.027998 179 1117ft 0kts
16-Mar-22 17:17 33.443683 -112.027998 179 1117ft 0kts
16-Mar-22 17:18 33.443683 -112.027998 179 1117ft 0kts
16-Mar-22 17:19 33.442671 -112.027643 143 1117ft 10kts
16-Mar-22 17:20 33.441954 -112.019068 90 1122ft 43kts
16-Mar-22 17:21 33.441949 -112.005386 89 1131ft 41kts
16-Mar-22 17:22 33.441946 -111.991669 91 1140ft 30kts
16-Mar-22 17:23 33.441880 -111.991115 118 1141ft 0kts
16-Mar-22 17:24 33.441880 -111.991115 118 1141ft 0kts
16-Mar-22 17:25 33.441880 -111.991115 118 1141ft 0kts
16-Mar-22 17:26 33.441880 -111.991115 118 1141ft 0kts
16-Mar-22 17:27 33.440810 -111.993905 271 1138ft 61kts
16-Mar-22 17:28 33.441173 -112.040496 267 3053ft 164kts
16-Mar-22 17:29 33.441082 -112.094843 269 6134ft 169kts
16-Mar-22 17:30 33.442781 -112.156847 291 8067ft 233kts
16-Mar-22 17:31 33.505644 -112.190569 0 10077ft 291kts
16-Mar-22 17:32 33.588059 -112.183078 351 10358ft 308kts
16-Mar-22 17:33 33.677228 -112.206009 345 10088ft 341kts
16-Mar-22 17:34 33.772005 -112.231197 345 10101ft 357kts
16-Mar-22 17:35 33.869273 -112.257188 344 10053ft 361kts
16-Mar-22 17:36 33.967696 -112.283534 344 10009ft 363kts
16-Mar-22 17:37 34.066348 -112.309953 344 10008ft 364kts
16-Mar-22 17:38 34.164535 -112.336246 344 10066ft 362kts
16-Mar-22 17:39 34.262591 -112.363391 337 10128ft 358kts
16-Mar-22 17:40 34.359352 -112.359108 20 10137ft 374kts
16-Mar-22 17:41 34.452203 -112.309470 20 10135ft 337kts
16-Mar-22 17:42 34.528372 -112.267119 20 10136ft 271kts
16-Mar-22 17:43 34.588477 -112.231940 20 10152ft 205kts
16-Mar-22 17:44 34.632835 -112.204020 20 10138ft 176kts
16-Mar-22 17:45 34.675798 -112.177144 20 10138ft 172kts
16-Mar-22 17:46 34.718252 -112.151195 20 10136ft 169kts
16-Mar-22 17:47 34.760329 -112.126112 20 10137ft 168kts
16-Mar-22 17:48 34.802507 -112.101370 20 10138ft 168kts
16-Mar-22 17:49 34.844407 -112.077145 20 10137ft 167kts
16-Mar-22 17:50 34.886551 -112.052964 20 10139ft 167kts
16-Mar-22 17:51 34.928669 -112.028868 20 10154ft 167kts
16-Mar-22 17:52 34.956771 -112.049274 254 9580ft 174kts
16-Mar-22 17:53 34.930038 -112.100115 239 9013ft 177kts
16-Mar-22 17:54 34.901480 -112.149922 240 8999ft 178kts
16-Mar-22 17:55 34.865948 -112.193072 227 8989ft 180kts
16-Mar-22 17:56 34.828570 -112.233384 228 8978ft 178kts
16-Mar-22 17:57 34.794670 -112.269654 228 8479ft 158kts
16-Mar-22 17:58 34.762561 -112.304080 228 7734ft 156kts
16-Mar-22 17:59 34.731232 -112.337509 229 6834ft 151kts
16-Mar-22 18:00 34.700312 -112.370646 228 6001ft 150kts
16-Mar-22 18:01 34.669721 -112.403223 230 5197ft 147kts
16-Mar-22 18:02 34.641111 -112.437977 258 5783ft 166kts
16-Mar-22 18:03 34.675824 -112.465584 346 8388ft 179kts
16-Mar-22 18:04 34.721295 -112.496199 315 9004ft 191kts
16-Mar-22 18:05 34.759895 -112.540042 307 8997ft 191kts
16-Mar-22 18:06 34.793527 -112.589436 278 8965ft 214kts
16-Mar-22 18:07 34.744655 -112.617478 168 9005ft 243kts
16-Mar-22 18:08 34.686523 -112.575177 139 9014ft 249kts
16-Mar-22 18:09 34.670742 -112.498190 66 9018ft 246kts
16-Mar-22 18:10 34.723963 -112.437226 30 9012ft 293kts
16-Mar-22 18:12 34.791063 -112.381543 30 9016ft 293kts
16-Mar-22 18:13 34.858313 -112.325712 30 9018ft 293kts
16-Mar-22 18:14 34.924295 -112.270802 30 9028ft 268kts
16-Mar-22 18:15 34.968794 -112.211887 75 9077ft 221kts
16-Mar-22 18:16 34.943627 -112.159544 168 9053ft 189kts
16-Mar-22 18:17 34.895164 -112.165079 220 9035ft 175kts
16-Mar-22 18:18 34.858333 -112.201810 227 9035ft 170kts
16-Mar-22 18:19 34.823131 -112.239339 228 9089ft 158kts
16-Mar-22 18:20 34.791447 -112.273132 228 8289ft 145kts
16-Mar-22 18:21 34.760836 -112.305958 227 7514ft 144kts
16-Mar-22 18:22 34.730685 -112.338075 227 6746ft 142kts
16-Mar-22 18:23 34.701033 -112.369903 227 5993ft 142kts
16-Mar-22 18:24 34.671361 -112.401458 227 5228ft 141kts
16-Mar-22 18:25 34.650494 -112.423740 221 5014ft 39kts

Navigation Log

Ident Type
Flight plan parsing failed, navigation log unavailable